sensor_id;sensor_type;location;lat;lon;timestamp;pressure;altitude;pressure_sealevel;temperature
69590;BMP180;56792;50.644;17.984;2022-11-24T00:07:03;98811.80;;;2.50
69590;BMP180;56792;50.644;17.984;2022-11-24T00:09:35;98818.20;;;2.50
69590;BMP180;56792;50.644;17.984;2022-11-24T00:12:08;98817.40;;;2.50
69590;BMP180;56792;50.644;17.984;2022-11-24T00:14:40;98824.60;;;2.46
69590;BMP180;56792;50.644;17.984;2022-11-24T00:17:12;98820.20;;;2.44
69590;BMP180;56792;50.644;17.984;2022-11-24T00:19:43;98824.40;;;2.50
69590;BMP180;56792;50.644;17.984;2022-11-24T00:22:15;98826.00;;;2.50
69590;BMP180;56792;50.644;17.984;2022-11-24T00:24:47;98826.80;;;2.50
69590;BMP180;56792;50.644;17.984;2022-11-24T00:27:19;98839.00;;;2.50
69590;BMP180;56792;50.644;17.984;2022-11-24T00:29:51;98838.20;;;2.50
69590;BMP180;56792;50.644;17.984;2022-11-24T00:32:23;98840.60;;;2.50
69590;BMP180;56792;50.644;17.984;2022-11-24T00:34:55;98840.60;;;2.50
69590;BMP180;56792;50.644;17.984;2022-11-24T00:37:27;98841.80;;;2.50
69590;BMP180;56792;50.644;17.984;2022-11-24T00:39:59;98837.80;;;2.50
69590;BMP180;56792;50.644;17.984;2022-11-24T00:42:31;98838.20;;;2.50
69590;BMP180;56792;50.644;17.984;2022-11-24T00:45:03;98841.80;;;2.48
69590;BMP180;56792;50.644;17.984;2022-11-24T00:47:35;98840.20;;;2.40
69590;BMP180;56792;50.644;17.984;2022-11-24T00:50:09;98837.80;;;2.40
69590;BMP180;56792;50.644;17.984;2022-11-24T00:52:41;98834.20;;;2.40
69590;BMP180;56792;50.644;17.984;2022-11-24T00:55:13;98836.80;;;2.46
69590;BMP180;56792;50.644;17.984;2022-11-24T00:57:45;98831.80;;;2.46
69590;BMP180;56792;50.644;17.984;2022-11-24T01:00:18;98833.40;;;2.46
69590;BMP180;56792;50.644;17.984;2022-11-24T01:02:51;98834.40;;;2.48
69590;BMP180;56792;50.644;17.984;2022-11-24T01:05:23;98831.60;;;2.50
69590;BMP180;56792;50.644;17.984;2022-11-24T01:07:55;98831.00;;;2.46
69590;BMP180;56792;50.644;17.984;2022-11-24T01:10:27;98831.80;;;2.42
69590;BMP180;56792;50.644;17.984;2022-11-24T01:12:59;98830.00;;;2.50
69590;BMP180;56792;50.644;17.984;2022-11-24T01:15:33;98829.40;;;2.50
69590;BMP180;56792;50.644;17.984;2022-11-24T01:18:05;98830.60;;;2.50
69590;BMP180;56792;50.644;17.984;2022-11-24T01:20:38;98828.20;;;2.50
69590;BMP180;56792;50.644;17.984;2022-11-24T01:23:10;98827.80;;;2.50
69590;BMP180;56792;50.644;17.984;2022-11-24T01:25:43;98825.60;;;2.50
69590;BMP180;56792;50.644;17.984;2022-11-24T01:28:15;98830.20;;;2.50
69590;BMP180;56792;50.644;17.984;2022-11-24T01:30:54;98828.60;;;2.50
69590;BMP180;56792;50.644;17.984;2022-11-24T01:33:27;98832.60;;;2.50
69590;BMP180;56792;50.644;17.984;2022-11-24T01:36:00;98836.80;;;2.50
69590;BMP180;56792;50.644;17.984;2022-11-24T01:38:33;98842.40;;;2.50
69590;BMP180;56792;50.644;17.984;2022-11-24T01:41:09;98843.00;;;2.50
69590;BMP180;56792;50.644;17.984;2022-11-24T01:43:42;98846.60;;;2.50
69590;BMP180;56792;50.644;17.984;2022-11-24T01:46:21;98847.40;;;2.50
69590;BMP180;56792;50.644;17.984;2022-11-24T01:48:59;98850.80;;;2.50
69590;BMP180;56792;50.644;17.984;2022-11-24T01:51:38;98857.60;;;2.50
69590;BMP180;56792;50.644;17.984;2022-11-24T01:54:17;98849.20;;;2.50
69590;BMP180;56792;50.644;17.984;2022-11-24T01:56:55;98854.60;;;2.50
69590;BMP180;56792;50.644;17.984;2022-11-24T01:59:30;98851.20;;;2.50
69590;BMP180;56792;50.644;17.984;2022-11-24T02:02:02;98853.00;;;2.48
69590;BMP180;56792;50.644;17.984;2022-11-24T02:04:36;98845.00;;;2.46
69590;BMP180;56792;50.644;17.984;2022-11-24T02:07:08;98847.00;;;2.40
69590;BMP180;56792;50.644;17.984;2022-11-24T02:09:47;98847.00;;;2.40
69590;BMP180;56792;50.644;17.984;2022-11-24T02:12:20;98842.60;;;2.30
69590;BMP180;56792;50.644;17.984;2022-11-24T02:14:54;98850.40;;;2.30
69590;BMP180;56792;50.644;17.984;2022-11-24T02:17:26;98846.60;;;2.38
69590;BMP180;56792;50.644;17.984;2022-11-24T02:20:03;98846.60;;;2.40
69590;BMP180;56792;50.644;17.984;2022-11-24T02:22:46;98841.40;;;2.40
69590;BMP180;56792;50.644;17.984;2022-11-24T02:25:31;98842.80;;;2.40
69590;BMP180;56792;50.644;17.984;2022-11-24T02:28:10;98845.80;;;2.40
69590;BMP180;56792;50.644;17.984;2022-11-24T02:30:43;98850.60;;;2.50
69590;BMP180;56792;50.644;17.984;2022-11-24T02:33:16;98852.00;;;2.50
69590;BMP180;56792;50.644;17.984;2022-11-24T02:35:48;98853.80;;;2.50
69590;BMP180;56792;50.644;17.984;2022-11-24T02:38:29;98852.00;;;2.50
69590;BMP180;56792;50.644;17.984;2022-11-24T02:41:05;98852.00;;;2.50
69590;BMP180;56792;50.644;17.984;2022-11-24T02:43:44;98845.80;;;2.50
69590;BMP180;56792;50.644;17.984;2022-11-24T02:46:17;98849.40;;;2.50
69590;BMP180;56792;50.644;17.984;2022-11-24T02:48:50;98849.60;;;2.50
69590;BMP180;56792;50.644;17.984;2022-11-24T02:51:22;98851.60;;;2.50
69590;BMP180;56792;50.644;17.984;2022-11-24T02:53:54;98853.60;;;2.50
69590;BMP180;56792;50.644;17.984;2022-11-24T02:56:27;98854.20;;;2.50
69590;BMP180;56792;50.644;17.984;2022-11-24T02:58:59;98852.40;;;2.50
69590;BMP180;56792;50.644;17.984;2022-11-24T03:01:31;98853.00;;;2.50
69590;BMP180;56792;50.644;17.984;2022-11-24T03:04:03;98849.40;;;2.40
69590;BMP180;56792;50.644;17.984;2022-11-24T03:06:36;98843.80;;;2.40
69590;BMP180;56792;50.644;17.984;2022-11-24T03:09:08;98847.00;;;2.40
69590;BMP180;56792;50.644;17.984;2022-11-24T03:11:41;98847.00;;;2.30
69590;BMP180;56792;50.644;17.984;2022-11-24T03:14:13;98848.40;;;2.30
69590;BMP180;56792;50.644;17.984;2022-11-24T03:16:45;98843.40;;;2.30
69590;BMP180;56792;50.644;17.984;2022-11-24T03:19:17;98849.60;;;2.34
69590;BMP180;56792;50.644;17.984;2022-11-24T03:21:49;98846.40;;;2.40
69590;BMP180;56792;50.644;17.984;2022-11-24T03:24:21;98844.20;;;2.40
69590;BMP180;56792;50.644;17.984;2022-11-24T03:26:53;98850.00;;;2.38
69590;BMP180;56792;50.644;17.984;2022-11-24T03:29:25;98852.40;;;2.40
69590;BMP180;56792;50.644;17.984;2022-11-24T03:31:57;98851.20;;;2.40
69590;BMP180;56792;50.644;17.984;2022-11-24T03:34:29;98852.40;;;2.40
69590;BMP180;56792;50.644;17.984;2022-11-24T03:37:01;98853.20;;;2.42
69590;BMP180;56792;50.644;17.984;2022-11-24T03:39:34;98861.20;;;2.42
69590;BMP180;56792;50.644;17.984;2022-11-24T03:42:06;98864.00;;;2.40
69590;BMP180;56792;50.644;17.984;2022-11-24T03:44:38;98863.80;;;2.48
69590;BMP180;56792;50.644;17.984;2022-11-24T03:47:10;98868.20;;;2.50
69590;BMP180;56792;50.644;17.984;2022-11-24T03:49:42;98864.80;;;2.50
69590;BMP180;56792;50.644;17.984;2022-11-24T03:52:15;98865.40;;;2.50
69590;BMP180;56792;50.644;17.984;2022-11-24T03:54:47;98870.40;;;2.50
69590;BMP180;56792;50.644;17.984;2022-11-24T03:57:18;98867.00;;;2.50
69590;BMP180;56792;50.644;17.984;2022-11-24T03:59:50;98869.20;;;2.54
69590;BMP180;56792;50.644;17.984;2022-11-24T04:02:22;98872.20;;;2.50
69590;BMP180;56792;50.644;17.984;2022-11-24T04:04:54;98873.80;;;2.50
69590;BMP180;56792;50.644;17.984;2022-11-24T04:07:26;98876.20;;;2.50
69590;BMP180;56792;50.644;17.984;2022-11-24T04:09:58;98879.40;;;2.50
69590;BMP180;56792;50.644;17.984;2022-11-24T04:12:31;98882.40;;;2.50
69590;BMP180;56792;50.644;17.984;2022-11-24T04:15:17;98884.60;;;2.50
69590;BMP180;56792;50.644;17.984;2022-11-24T04:17:52;98882.20;;;2.50
69590;BMP180;56792;50.644;17.984;2022-11-24T04:20:25;98886.40;;;2.50
69590;BMP180;56792;50.644;17.984;2022-11-24T04:22:57;98890.60;;;2.50
69590;BMP180;56792;50.644;17.984;2022-11-24T04:25:29;98891.20;;;2.50
69590;BMP180;56792;50.644;17.984;2022-11-24T04:28:01;98895.60;;;2.46
69590;BMP180;56792;50.644;17.984;2022-11-24T04:30:33;98893.80;;;2.44
69590;BMP180;56792;50.644;17.984;2022-11-24T04:33:05;98900.60;;;2.44
69590;BMP180;56792;50.644;17.984;2022-11-24T04:35:37;98905.60;;;2.46
69590;BMP180;56792;50.644;17.984;2022-11-24T04:38:09;98907.00;;;2.42
69590;BMP180;56792;50.644;17.984;2022-11-24T04:40:41;98906.80;;;2.40
69590;BMP180;56792;50.644;17.984;2022-11-24T04:43:13;98906.60;;;2.40
69590;BMP180;56792;50.644;17.984;2022-11-24T04:45:48;98911.20;;;2.40
69590;BMP180;56792;50.644;17.984;2022-11-24T04:48:20;98911.20;;;2.40
69590;BMP180;56792;50.644;17.984;2022-11-24T04:50:52;98911.60;;;2.40
69590;BMP180;56792;50.644;17.984;2022-11-24T04:53:24;98914.20;;;2.40
69590;BMP180;56792;50.644;17.984;2022-11-24T04:55:55;98921.40;;;2.40
69590;BMP180;56792;50.644;17.984;2022-11-24T04:58:27;98920.20;;;2.36
69590;BMP180;56792;50.644;17.984;2022-11-24T05:00:59;98926.40;;;2.36
69590;BMP180;56792;50.644;17.984;2022-11-24T05:03:31;98925.40;;;2.30
69590;BMP180;56792;50.644;17.984;2022-11-24T05:06:04;98931.40;;;2.30
69590;BMP180;56792;50.644;17.984;2022-11-24T05:08:38;98931.60;;;2.30
69590;BMP180;56792;50.644;17.984;2022-11-24T05:11:10;98937.80;;;2.30
69590;BMP180;56792;50.644;17.984;2022-11-24T05:13:42;98939.80;;;2.30
69590;BMP180;56792;50.644;17.984;2022-11-24T05:16:14;98937.40;;;2.30
69590;BMP180;56792;50.644;17.984;2022-11-24T05:18:47;98939.00;;;2.30
69590;BMP180;56792;50.644;17.984;2022-11-24T05:21:19;98933.20;;;2.30
69590;BMP180;56792;50.644;17.984;2022-11-24T05:23:51;98934.40;;;2.30
69590;BMP180;56792;50.644;17.984;2022-11-24T05:26:23;98934.20;;;2.30
69590;BMP180;56792;50.644;17.984;2022-11-24T05:28:55;98932.60;;;2.30
69590;BMP180;56792;50.644;17.984;2022-11-24T05:31:27;98938.00;;;2.30
69590;BMP180;56792;50.644;17.984;2022-11-24T05:33:59;98936.20;;;2.30
69590;BMP180;56792;50.644;17.984;2022-11-24T05:36:31;98942.20;;;2.30
69590;BMP180;56792;50.644;17.984;2022-11-24T05:39:21;98945.20;;;2.30
69590;BMP180;56792;50.644;17.984;2022-11-24T05:41:53;98950.60;;;2.30
69590;BMP180;56792;50.644;17.984;2022-11-24T05:44:26;98959.60;;;2.30
69590;BMP180;56792;50.644;17.984;2022-11-24T05:46:58;98958.40;;;2.30
69590;BMP180;56792;50.644;17.984;2022-11-24T05:49:30;98961.60;;;2.30
69590;BMP180;56792;50.644;17.984;2022-11-24T05:52:02;98964.80;;;2.30
69590;BMP180;56792;50.644;17.984;2022-11-24T05:54:35;98964.20;;;2.30
69590;BMP180;56792;50.644;17.984;2022-11-24T05:57:07;98970.60;;;2.30
69590;BMP180;56792;50.644;17.984;2022-11-24T05:59:39;98965.40;;;2.28
69590;BMP180;56792;50.644;17.984;2022-11-24T06:02:11;98965.60;;;2.30
69590;BMP180;56792;50.644;17.984;2022-11-24T06:04:43;98974.40;;;2.30
69590;BMP180;56792;50.644;17.984;2022-11-24T06:07:16;98977.20;;;2.30
69590;BMP180;56792;50.644;17.984;2022-11-24T06:09:48;98977.60;;;2.30
69590;BMP180;56792;50.644;17.984;2022-11-24T06:12:20;98988.00;;;2.30
69590;BMP180;56792;50.644;17.984;2022-11-24T06:14:52;98989.20;;;2.30
69590;BMP180;56792;50.644;17.984;2022-11-24T06:17:24;98991.00;;;2.30
69590;BMP180;56792;50.644;17.984;2022-11-24T06:19:57;98992.80;;;2.30
69590;BMP180;56792;50.644;17.984;2022-11-24T06:22:29;98997.40;;;2.30
69590;BMP180;56792;50.644;17.984;2022-11-24T06:25:01;98999.80;;;2.30
69590;BMP180;56792;50.644;17.984;2022-11-24T06:27:33;99002.40;;;2.30
69590;BMP180;56792;50.644;17.984;2022-11-24T06:30:07;99000.20;;;2.30
69590;BMP180;56792;50.644;17.984;2022-11-24T06:32:39;99006.20;;;2.30
69590;BMP180;56792;50.644;17.984;2022-11-24T06:35:15;99007.80;;;2.32
69590;BMP180;56792;50.644;17.984;2022-11-24T06:37:47;99010.60;;;2.30
69590;BMP180;56792;50.644;17.984;2022-11-24T06:40:19;99013.00;;;2.30
69590;BMP180;56792;50.644;17.984;2022-11-24T06:42:53;99012.40;;;2.30
69590;BMP180;56792;50.644;17.984;2022-11-24T06:45:26;99020.00;;;2.32
69590;BMP180;56792;50.644;17.984;2022-11-24T06:47:58;99022.40;;;2.34
69590;BMP180;56792;50.644;17.984;2022-11-24T06:50:30;99025.00;;;2.40
69590;BMP180;56792;50.644;17.984;2022-11-24T06:53:02;99023.00;;;2.40
69590;BMP180;56792;50.644;17.984;2022-11-24T06:55:34;99028.60;;;2.40
69590;BMP180;56792;50.644;17.984;2022-11-24T06:58:06;99030.60;;;2.38
69590;BMP180;56792;50.644;17.984;2022-11-24T07:00:39;99034.20;;;2.40
69590;BMP180;56792;50.644;17.984;2022-11-24T07:03:16;99035.60;;;2.40
69590;BMP180;56792;50.644;17.984;2022-11-24T07:05:48;99040.00;;;2.40
69590;BMP180;56792;50.644;17.984;2022-11-24T07:08:26;99042.80;;;2.40
69590;BMP180;56792;50.644;17.984;2022-11-24T07:11:04;99046.60;;;2.40
69590;BMP180;56792;50.644;17.984;2022-11-24T07:13:37;99054.80;;;2.42
69590;BMP180;56792;50.644;17.984;2022-11-24T07:16:21;99058.60;;;2.44
69590;BMP180;56792;50.644;17.984;2022-11-24T07:18:55;99065.60;;;2.42
69590;BMP180;56792;50.644;17.984;2022-11-24T07:21:28;99066.40;;;2.50
69590;BMP180;56792;50.644;17.984;2022-11-24T07:24:01;99060.40;;;2.50
69590;BMP180;56792;50.644;17.984;2022-11-24T07:26:33;99061.20;;;2.50
69590;BMP180;56792;50.644;17.984;2022-11-24T07:29:07;99063.60;;;2.50
69590;BMP180;56792;50.644;17.984;2022-11-24T07:31:39;99066.20;;;2.50
69590;BMP180;56792;50.644;17.984;2022-11-24T07:34:12;99068.80;;;2.50
69590;BMP180;56792;50.644;17.984;2022-11-24T07:36:45;99065.00;;;2.50
69590;BMP180;56792;50.644;17.984;2022-11-24T07:39:17;99068.60;;;2.50
69590;BMP180;56792;50.644;17.984;2022-11-24T07:41:49;99075.20;;;2.56
69590;BMP180;56792;50.644;17.984;2022-11-24T07:44:21;99071.80;;;2.54
69590;BMP180;56792;50.644;17.984;2022-11-24T07:46:54;99074.20;;;2.60
69590;BMP180;56792;50.644;17.984;2022-11-24T07:49:26;99077.80;;;2.60
69590;BMP180;56792;50.644;17.984;2022-11-24T07:51:58;99077.20;;;2.62
69590;BMP180;56792;50.644;17.984;2022-11-24T07:54:31;99082.20;;;2.70
69590;BMP180;56792;50.644;17.984;2022-11-24T07:57:03;99081.40;;;2.70
69590;BMP180;56792;50.644;17.984;2022-11-24T07:59:35;99087.80;;;2.80
69590;BMP180;56792;50.644;17.984;2022-11-24T08:02:07;99088.40;;;2.80
69590;BMP180;56792;50.644;17.984;2022-11-24T08:04:40;99091.80;;;2.80
69590;BMP180;56792;50.644;17.984;2022-11-24T08:07:13;99091.80;;;2.82
69590;BMP180;56792;50.644;17.984;2022-11-24T08:09:45;99100.20;;;2.90
69590;BMP180;56792;50.644;17.984;2022-11-24T08:12:17;99106.00;;;2.90
69590;BMP180;56792;50.644;17.984;2022-11-24T08:14:51;99109.40;;;2.90
69590;BMP180;56792;50.644;17.984;2022-11-24T08:17:23;99106.60;;;2.90
69590;BMP180;56792;50.644;17.984;2022-11-24T08:19:56;99111.80;;;2.96
69590;BMP180;56792;50.644;17.984;2022-11-24T08:22:27;99111.00;;;3.00
69590;BMP180;56792;50.644;17.984;2022-11-24T08:25:00;99111.20;;;3.00
69590;BMP180;56792;50.644;17.984;2022-11-24T08:27:33;99107.20;;;3.00
69590;BMP180;56792;50.644;17.984;2022-11-24T08:30:08;99112.80;;;3.00
69590;BMP180;56792;50.644;17.984;2022-11-24T08:32:40;99112.20;;;3.00
69590;BMP180;56792;50.644;17.984;2022-11-24T08:35:12;99111.60;;;3.08
69590;BMP180;56792;50.644;17.984;2022-11-24T08:37:44;99112.40;;;3.10
69590;BMP180;56792;50.644;17.984;2022-11-24T08:40:17;99116.80;;;3.12
69590;BMP180;56792;50.644;17.984;2022-11-24T08:42:49;99120.40;;;3.18
69590;BMP180;56792;50.644;17.984;2022-11-24T08:45:22;99120.60;;;3.20
69590;BMP180;56792;50.644;17.984;2022-11-24T08:47:56;99126.00;;;3.20
69590;BMP180;56792;50.644;17.984;2022-11-24T08:50:28;99126.80;;;3.30
69590;BMP180;56792;50.644;17.984;2022-11-24T08:53:00;99126.20;;;3.30
69590;BMP180;56792;50.644;17.984;2022-11-24T08:55:32;99128.80;;;3.40
69590;BMP180;56792;50.644;17.984;2022-11-24T08:58:04;99124.80;;;3.42
69590;BMP180;56792;50.644;17.984;2022-11-24T09:00:36;99134.60;;;3.40
69590;BMP180;56792;50.644;17.984;2022-11-24T09:03:11;99131.20;;;3.44
69590;BMP180;56792;50.644;17.984;2022-11-24T09:05:43;99130.20;;;3.40
69590;BMP180;56792;50.644;17.984;2022-11-24T09:08:16;99136.60;;;3.50
69590;BMP180;56792;50.644;17.984;2022-11-24T09:10:48;99138.20;;;3.50
69590;BMP180;56792;50.644;17.984;2022-11-24T09:13:20;99136.40;;;3.50
69590;BMP180;56792;50.644;17.984;2022-11-24T09:15:52;99139.60;;;3.50
69590;BMP180;56792;50.644;17.984;2022-11-24T09:18:25;99140.20;;;3.50
69590;BMP180;56792;50.644;17.984;2022-11-24T09:21:06;99139.60;;;3.50
69590;BMP180;56792;50.644;17.984;2022-11-24T09:23:39;99138.80;;;3.50
69590;BMP180;56792;50.644;17.984;2022-11-24T09:26:14;99132.60;;;3.60
69590;BMP180;56792;50.644;17.984;2022-11-24T09:28:47;99133.00;;;3.60
69590;BMP180;56792;50.644;17.984;2022-11-24T09:31:21;99138.00;;;3.60
69590;BMP180;56792;50.644;17.984;2022-11-24T09:33:54;99133.60;;;3.60
69590;BMP180;56792;50.644;17.984;2022-11-24T09:36:27;99135.00;;;3.64
69590;BMP180;56792;50.644;17.984;2022-11-24T09:39:01;99138.00;;;3.68
69590;BMP180;56792;50.644;17.984;2022-11-24T09:41:48;99139.60;;;3.70
69590;BMP180;56792;50.644;17.984;2022-11-24T09:48:00;99141.20;;;3.70
69590;BMP180;56792;50.644;17.984;2022-11-24T09:50:36;99140.80;;;3.70
69590;BMP180;56792;50.644;17.984;2022-11-24T09:53:18;99139.40;;;3.70
69590;BMP180;56792;50.644;17.984;2022-11-24T09:55:52;99144.20;;;3.70
69590;BMP180;56792;50.644;17.984;2022-11-24T09:58:37;99137.40;;;3.70
69590;BMP180;56792;50.644;17.984;2022-11-24T10:01:16;99138.80;;;3.76
69590;BMP180;56792;50.644;17.984;2022-11-24T10:03:51;99135.20;;;3.84
69590;BMP180;56792;50.644;17.984;2022-11-24T10:06:27;99138.20;;;3.90
69590;BMP180;56792;50.644;17.984;2022-11-24T10:09:26;99136.80;;;3.90
69590;BMP180;56792;50.644;17.984;2022-11-24T10:12:18;99140.60;;;3.90
69590;BMP180;56792;50.644;17.984;2022-11-24T10:18:25;99140.60;;;3.90
69590;BMP180;56792;50.644;17.984;2022-11-24T10:21:16;99142.20;;;3.90
69590;BMP180;56792;50.644;17.984;2022-11-24T10:24:28;99149.80;;;3.90
69590;BMP180;56792;50.644;17.984;2022-11-24T10:27:12;99151.80;;;3.92
69590;BMP180;56792;50.644;17.984;2022-11-24T10:29:50;99152.00;;;4.00
69590;BMP180;56792;50.644;17.984;2022-11-24T10:32:27;99155.80;;;3.90
69590;BMP180;56792;50.644;17.984;2022-11-24T10:35:14;99152.40;;;3.90
69590;BMP180;56792;50.644;17.984;2022-11-24T10:37:56;99153.40;;;3.90
69590;BMP180;56792;50.644;17.984;2022-11-24T10:40:39;99156.60;;;3.90
69590;BMP180;56792;50.644;17.984;2022-11-24T10:43:13;99154.20;;;3.90
69590;BMP180;56792;50.644;17.984;2022-11-24T10:45:45;99154.20;;;3.90
69590;BMP180;56792;50.644;17.984;2022-11-24T10:48:23;99153.20;;;3.90
69590;BMP180;56792;50.644;17.984;2022-11-24T10:51:14;99148.80;;;3.90
69590;BMP180;56792;50.644;17.984;2022-11-24T10:53:52;99147.80;;;4.00
69590;BMP180;56792;50.644;17.984;2022-11-24T10:56:36;99149.60;;;4.00
69590;BMP180;56792;50.644;17.984;2022-11-24T10:59:30;99150.60;;;3.98
69590;BMP180;56792;50.644;17.984;2022-11-24T11:02:07;99151.20;;;4.00
69590;BMP180;56792;50.644;17.984;2022-11-24T11:04:56;99151.60;;;4.02
69590;BMP180;56792;50.644;17.984;2022-11-24T11:07:28;99154.80;;;4.10
69590;BMP180;56792;50.644;17.984;2022-11-24T11:10:22;99154.40;;;4.10
69590;BMP180;56792;50.644;17.984;2022-11-24T11:12:54;99157.80;;;4.10
69590;BMP180;56792;50.644;17.984;2022-11-24T11:15:32;99161.20;;;4.10
69590;BMP180;56792;50.644;17.984;2022-11-24T11:18:04;99161.80;;;4.10
69590;BMP180;56792;50.644;17.984;2022-11-24T11:20:37;99159.60;;;4.10
69590;BMP180;56792;50.644;17.984;2022-11-24T11:23:22;99155.00;;;4.10
69590;BMP180;56792;50.644;17.984;2022-11-24T11:26:26;99157.80;;;4.10
69590;BMP180;56792;50.644;17.984;2022-11-24T11:29:14;99157.80;;;4.10
69590;BMP180;56792;50.644;17.984;2022-11-24T11:32:02;99159.80;;;4.20
69590;BMP180;56792;50.644;17.984;2022-11-24T11:34:37;99161.60;;;4.10
69590;BMP180;56792;50.644;17.984;2022-11-24T11:37:13;99162.60;;;4.10
69590;BMP180;56792;50.644;17.984;2022-11-24T11:39:49;99164.40;;;4.10
69590;BMP180;56792;50.644;17.984;2022-11-24T11:42:40;99166.80;;;4.10
69590;BMP180;56792;50.644;17.984;2022-11-24T11:45:19;99162.80;;;4.18
69590;BMP180;56792;50.644;17.984;2022-11-24T11:48:01;99161.80;;;4.20
69590;BMP180;56792;50.644;17.984;2022-11-24T11:50:50;99165.40;;;4.20
69590;BMP180;56792;50.644;17.984;2022-11-24T11:53:35;99165.20;;;4.22
69590;BMP180;56792;50.644;17.984;2022-11-24T11:56:27;99160.00;;;4.30
69590;BMP180;56792;50.644;17.984;2022-11-24T11:59:45;99164.40;;;4.40
69590;BMP180;56792;50.644;17.984;2022-11-24T12:05:53;99181.00;;;4.50
69590;BMP180;56792;50.644;17.984;2022-11-24T12:08:41;99181.80;;;4.50
69590;BMP180;56792;50.644;17.984;2022-11-24T12:11:27;99181.20;;;4.54
69590;BMP180;56792;50.644;17.984;2022-11-24T12:14:21;99182.00;;;4.60
69590;BMP180;56792;50.644;17.984;2022-11-24T12:17:09;99186.20;;;4.60
69590;BMP180;56792;50.644;17.984;2022-11-24T12:20:05;99183.20;;;4.60
69590;BMP180;56792;50.644;17.984;2022-11-24T12:22:48;99184.00;;;4.60
69590;BMP180;56792;50.644;17.984;2022-11-24T12:25:29;99179.00;;;4.60
69590;BMP180;56792;50.644;17.984;2022-11-24T12:28:31;99184.40;;;4.60
69590;BMP180;56792;50.644;17.984;2022-11-24T12:31:15;99189.60;;;4.60
69590;BMP180;56792;50.644;17.984;2022-11-24T12:34:17;99187.40;;;4.60
69590;BMP180;56792;50.644;17.984;2022-11-24T12:37:10;99195.60;;;4.70
69590;BMP180;56792;50.644;17.984;2022-11-24T12:39:54;99198.60;;;4.70
69590;BMP180;56792;50.644;17.984;2022-11-24T12:42:44;99201.80;;;4.60
69590;BMP180;56792;50.644;17.984;2022-11-24T12:45:33;99202.00;;;4.50
69590;BMP180;56792;50.644;17.984;2022-11-24T12:48:27;99206.20;;;4.50
69590;BMP180;56792;50.644;17.984;2022-11-24T12:51:06;99200.20;;;4.48
69590;BMP180;56792;50.644;17.984;2022-11-24T12:53:43;99191.80;;;4.40
69590;BMP180;56792;50.644;17.984;2022-11-24T12:56:22;99192.60;;;4.40
69590;BMP180;56792;50.644;17.984;2022-11-24T12:59:15;99195.60;;;4.40
69590;BMP180;56792;50.644;17.984;2022-11-24T13:01:59;99198.00;;;4.40
69590;BMP180;56792;50.644;17.984;2022-11-24T13:04:41;99206.60;;;4.40
69590;BMP180;56792;50.644;17.984;2022-11-24T13:07:22;99206.40;;;4.30
69590;BMP180;56792;50.644;17.984;2022-11-24T13:10:34;99206.60;;;4.30
69590;BMP180;56792;50.644;17.984;2022-11-24T13:13:09;99202.40;;;4.30
69590;BMP180;56792;50.644;17.984;2022-11-24T13:16:16;99194.20;;;4.30
69590;BMP180;56792;50.644;17.984;2022-11-24T13:18:56;99195.80;;;4.30
69590;BMP180;56792;50.644;17.984;2022-11-24T13:22:08;99199.60;;;4.20
69590;BMP180;56792;50.644;17.984;2022-11-24T13:24:42;99206.20;;;4.20
69590;BMP180;56792;50.644;17.984;2022-11-24T13:27:41;99208.00;;;4.20
69590;BMP180;56792;50.644;17.984;2022-11-24T13:30:54;99214.60;;;4.10
69590;BMP180;56792;50.644;17.984;2022-11-24T13:33:40;99222.00;;;4.10
69590;BMP180;56792;50.644;17.984;2022-11-24T13:36:52;99221.60;;;4.10
69590;BMP180;56792;50.644;17.984;2022-11-24T13:39:48;99221.80;;;4.10
69590;BMP180;56792;50.644;17.984;2022-11-24T13:42:21;99218.80;;;4.10
69590;BMP180;56792;50.644;17.984;2022-11-24T13:44:57;99220.80;;;4.10
69590;BMP180;56792;50.644;17.984;2022-11-24T13:47:35;99225.00;;;4.10
69590;BMP180;56792;50.644;17.984;2022-11-24T13:50:13;99226.60;;;4.04
69590;BMP180;56792;50.644;17.984;2022-11-24T13:52:56;99223.20;;;4.00
69590;BMP180;56792;50.644;17.984;2022-11-24T13:55:42;99225.00;;;4.00
69590;BMP180;56792;50.644;17.984;2022-11-24T13:58:33;99226.00;;;3.96
69590;BMP180;56792;50.644;17.984;2022-11-24T14:01:14;99225.60;;;3.90
69590;BMP180;56792;50.644;17.984;2022-11-24T14:04:00;99234.80;;;3.90
69590;BMP180;56792;50.644;17.984;2022-11-24T14:06:38;99234.80;;;3.80
69590;BMP180;56792;50.644;17.984;2022-11-24T14:09:25;99237.80;;;3.80
69590;BMP180;56792;50.644;17.984;2022-11-24T14:12:05;99243.40;;;3.80
69590;BMP180;56792;50.644;17.984;2022-11-24T14:14:38;99245.60;;;3.80
69590;BMP180;56792;50.644;17.984;2022-11-24T14:17:22;99252.20;;;3.80
69590;BMP180;56792;50.644;17.984;2022-11-24T14:19:57;99255.00;;;3.80
69590;BMP180;56792;50.644;17.984;2022-11-24T14:22:35;99266.80;;;3.80
69590;BMP180;56792;50.644;17.984;2022-11-24T14:25:27;99267.60;;;3.76
69590;BMP180;56792;50.644;17.984;2022-11-24T14:28:01;99273.60;;;3.70
69590;BMP180;56792;50.644;17.984;2022-11-24T14:30:33;99279.00;;;3.76
69590;BMP180;56792;50.644;17.984;2022-11-24T14:33:11;99277.00;;;3.72
69590;BMP180;56792;50.644;17.984;2022-11-24T14:35:48;99275.20;;;3.70
69590;BMP180;56792;50.644;17.984;2022-11-24T14:38:20;99280.00;;;3.70
69590;BMP180;56792;50.644;17.984;2022-11-24T14:40:56;99285.60;;;3.70
69590;BMP180;56792;50.644;17.984;2022-11-24T14:43:31;99290.20;;;3.70
69590;BMP180;56792;50.644;17.984;2022-11-24T14:46:06;99290.60;;;3.66
69590;BMP180;56792;50.644;17.984;2022-11-24T14:48:47;99289.40;;;3.60
69590;BMP180;56792;50.644;17.984;2022-11-24T14:51:24;99282.60;;;3.60
69590;BMP180;56792;50.644;17.984;2022-11-24T14:54:00;99281.80;;;3.50
69590;BMP180;56792;50.644;17.984;2022-11-24T14:56:35;99284.60;;;3.56
69590;BMP180;56792;50.644;17.984;2022-11-24T14:59:25;99287.40;;;3.50
69590;BMP180;56792;50.644;17.984;2022-11-24T15:01:58;99289.00;;;3.50
69590;BMP180;56792;50.644;17.984;2022-11-24T15:04:56;99289.60;;;3.50
69590;BMP180;56792;50.644;17.984;2022-11-24T15:07:29;99288.80;;;3.50
69590;BMP180;56792;50.644;17.984;2022-11-24T15:10:19;99291.40;;;3.50
69590;BMP180;56792;50.644;17.984;2022-11-24T15:13:01;99292.00;;;3.48
69590;BMP180;56792;50.644;17.984;2022-11-24T15:15:35;99291.80;;;3.40
69590;BMP180;56792;50.644;17.984;2022-11-24T15:18:23;99292.40;;;3.40
69590;BMP180;56792;50.644;17.984;2022-11-24T15:20:57;99291.60;;;3.40